createdAt,value
2022-08-01T00:00:58.575Z,98420.00
2022-08-01T00:03:26.765Z,98421.00
2022-08-01T00:05:54.971Z,98420.00
2022-08-01T00:08:23.168Z,98419.00
2022-08-01T00:10:51.389Z,98416.00
2022-08-01T00:13:19.581Z,98436.00
2022-08-01T00:15:53.744Z,98430.00
2022-08-01T00:18:24.074Z,98435.00
2022-08-01T00:20:52.290Z,98428.00
2022-08-01T00:23:20.447Z,98439.00
2022-08-01T00:25:48.628Z,98432.00
2022-08-01T00:28:17.567Z,98428.00
2022-08-01T00:30:45.767Z,98437.00
2022-08-01T00:33:13.967Z,98430.00
2022-08-01T00:35:43.563Z,98433.00
2022-08-01T00:38:14.344Z,98433.00
2022-08-01T00:40:42.556Z,98429.00
2022-08-01T00:43:11.437Z,98438.00
2022-08-01T00:45:39.618Z,98438.00
2022-08-01T00:48:07.833Z,98441.00
2022-08-01T00:50:36.029Z,98435.00
2022-08-01T00:53:05.630Z,98435.00
2022-08-01T00:55:33.835Z,98443.00
2022-08-01T00:58:05.768Z,98434.00
2022-08-01T01:00:52.829Z,98436.00
2022-08-01T01:03:33.436Z,98435.00
2022-08-01T01:06:17.180Z,98440.00
2022-08-01T01:08:50.593Z,98429.00
2022-08-01T01:11:22.217Z,98433.00
2022-08-01T01:13:53.679Z,98434.00
2022-08-01T01:16:21.945Z,98440.00
2022-08-01T01:18:52.206Z,98431.00
2022-08-01T01:21:42.403Z,98436.00
2022-08-01T01:24:16.651Z,98437.00
2022-08-01T01:26:48.324Z,98429.00
2022-08-01T01:29:18.520Z,98440.00
2022-08-01T01:31:50.867Z,98441.00
2022-08-01T01:34:21.092Z,98446.00
2022-08-01T01:36:49.894Z,98443.00
2022-08-01T01:39:18.075Z,98447.00
2022-08-01T01:41:46.508Z,98455.00
2022-08-01T01:44:14.703Z,98435.00
2022-08-01T01:46:44.268Z,98450.00
2022-08-01T01:49:12.530Z,98438.00
2022-08-01T01:51:40.996Z,98441.00
2022-08-01T01:54:09.214Z,98444.00
2022-08-01T01:56:49.528Z,98443.00
2022-08-01T01:59:18.404Z,98444.00
2022-08-01T02:02:05.187Z,98448.00
2022-08-01T02:04:34.661Z,98456.00
2022-08-01T02:07:03.151Z,98456.00
2022-08-01T02:09:31.379Z,98450.00
2022-08-01T02:12:09.346Z,98449.00
2022-08-01T02:14:41.588Z,98453.00
2022-08-01T02:17:11.418Z,98448.00
2022-08-01T02:19:40.045Z,98458.00
2022-08-01T02:22:10.299Z,98456.00
2022-08-01T02:24:39.744Z,98460.00
2022-08-01T02:27:10.347Z,98463.00
2022-08-01T02:29:40.119Z,98467.00
2022-08-01T02:32:08.897Z,98465.00
2022-08-01T02:34:38.499Z,98474.00
2022-08-01T02:37:07.707Z,98469.00
2022-08-01T02:39:36.242Z,98468.00
2022-08-01T02:42:07.417Z,98476.00
2022-08-01T02:44:37.843Z,98466.00
2022-08-01T02:47:06.267Z,98472.00
2022-08-01T02:49:35.722Z,98473.00
2022-08-01T02:52:07.886Z,98472.00
2022-08-01T02:54:36.505Z,98484.00
2022-08-01T02:57:05.061Z,98483.00
2022-08-01T02:59:34.992Z,98490.00
2022-08-01T03:02:04.126Z,98479.00
2022-08-01T03:04:32.517Z,98472.00
2022-08-01T03:07:00.762Z,98482.00
2022-08-01T03:09:30.339Z,98487.00
2022-08-01T03:12:01.540Z,98488.00
2022-08-01T03:14:29.877Z,98481.00
2022-08-01T03:16:58.067Z,98489.00
2022-08-01T03:19:26.656Z,98491.00
2022-08-01T03:21:54.928Z,98494.00
2022-08-01T03:24:23.107Z,98490.00
2022-08-01T03:26:52.710Z,98495.00
2022-08-01T03:29:23.926Z,98498.00
2022-08-01T03:31:52.119Z,98491.00
2022-08-01T03:34:22.308Z,98498.00
2022-08-01T03:36:51.823Z,98489.00
2022-08-01T03:39:20.304Z,98479.00
2022-08-01T03:41:57.232Z,98485.00
2022-08-01T03:44:26.908Z,98488.00
2022-08-01T03:46:58.832Z,98488.00
2022-08-01T03:49:30.670Z,98497.00
2022-08-01T03:51:58.990Z,98498.00
2022-08-01T03:54:27.815Z,98507.00
2022-08-01T03:56:57.828Z,98508.00
2022-08-01T03:59:26.022Z,98503.00
2022-08-01T04:01:54.230Z,98505.00
2022-08-01T04:04:22.469Z,98507.00
2022-08-01T04:06:54.891Z,98499.00
2022-08-01T04:09:23.083Z,98499.00
2022-08-01T04:11:51.242Z,98508.00
2022-08-01T04:14:20.841Z,98513.00
2022-08-01T04:16:49.365Z,98509.00
2022-08-01T04:19:17.553Z,98511.00
2022-08-01T04:21:45.877Z,98517.00
2022-08-01T04:24:15.177Z,98514.00
2022-08-01T04:26:43.908Z,98509.00
2022-08-01T04:29:12.288Z,98518.00
2022-08-01T04:31:42.210Z,98520.00
2022-08-01T04:34:11.107Z,98525.00
2022-08-01T04:36:39.288Z,98527.00
2022-08-01T04:39:07.542Z,98528.00
2022-08-01T04:44:18.864Z,98522.00
2022-08-01T04:46:49.465Z,98540.00
2022-08-01T04:49:17.754Z,98542.00
2022-08-01T04:51:53.175Z,98545.00
2022-08-01T04:54:22.561Z,98541.00
2022-08-01T04:56:51.416Z,98554.00
2022-08-01T04:59:37.457Z,98549.00
2022-08-01T05:02:10.449Z,98547.00
2022-08-01T05:04:38.860Z,98559.00
2022-08-01T05:07:07.228Z,98554.00
2022-08-01T05:09:35.590Z,98555.00
2022-08-01T05:12:04.790Z,98547.00
2022-08-01T05:14:33.633Z,98553.00
2022-08-01T05:17:04.137Z,98549.00
2022-08-01T05:19:33.975Z,98556.00
2022-08-01T05:22:02.646Z,98553.00
2022-08-01T05:24:31.021Z,98556.00
2022-08-01T05:27:00.478Z,98556.00
2022-08-01T05:29:28.866Z,98555.00
2022-08-01T05:31:57.525Z,98556.00
2022-08-01T05:34:25.773Z,98554.00
2022-08-01T05:36:57.978Z,98554.00
2022-08-01T05:39:26.363Z,98558.00
2022-08-01T05:41:54.555Z,98552.00
2022-08-01T05:44:22.761Z,98550.00
2022-08-01T05:46:50.915Z,98550.00
2022-08-01T05:49:19.239Z,98548.00
2022-08-01T05:51:47.483Z,98553.00
2022-08-01T05:54:17.111Z,98559.00
2022-08-01T05:56:46.080Z,98559.00
2022-08-01T05:59:14.255Z,98563.00
2022-08-01T06:01:42.506Z,98559.00
2022-08-01T06:04:13.093Z,98556.00
2022-08-01T06:06:41.314Z,98562.00
2022-08-01T06:09:09.506Z,98558.00
2022-08-01T06:11:39.182Z,98558.00
2022-08-01T06:14:07.410Z,98561.00
2022-08-01T06:16:35.603Z,98568.00
2022-08-01T06:19:03.851Z,98564.00
2022-08-01T06:21:32.084Z,98568.00
2022-08-01T06:24:00.307Z,98579.00
2022-08-01T06:26:28.628Z,98574.00
2022-08-01T06:28:58.190Z,98576.00
2022-08-01T06:31:30.465Z,98578.00
2022-08-01T06:34:00.025Z,98577.00
2022-08-01T06:36:28.216Z,98574.00
2022-08-01T06:38:56.386Z,98581.00
2022-08-01T06:41:24.624Z,98588.00
2022-08-01T06:43:52.772Z,98584.00
2022-08-01T06:46:22.349Z,98586.00
2022-08-01T06:48:50.586Z,98589.00
2022-08-01T06:51:21.051Z,98585.00
2022-08-01T06:53:49.921Z,98590.00
2022-08-01T06:56:18.129Z,98592.00
2022-08-01T06:58:49.165Z,98595.00
2022-08-01T07:01:18.199Z,98599.00
2022-08-01T07:03:52.980Z,98601.00
2022-08-01T07:06:22.468Z,98597.00
2022-08-01T07:08:50.649Z,98597.00
2022-08-01T07:11:19.398Z,98589.00
2022-08-01T07:13:47.598Z,98594.00
2022-08-01T07:16:15.890Z,98599.00
2022-08-01T07:18:44.134Z,98603.00
2022-08-01T07:21:38.314Z,98600.00
2022-08-01T07:24:02.023Z,98595.00
2022-08-01T07:26:52.244Z,98599.00
2022-08-01T07:29:23.464Z,98604.00
2022-08-01T07:31:51.738Z,98592.00
2022-08-01T07:34:19.981Z,98590.00
2022-08-01T07:36:49.556Z,98597.00
2022-08-01T07:39:17.738Z,98604.00
2022-08-01T07:42:06.694Z,98595.00
2022-08-01T07:44:34.390Z,98599.00
2022-08-01T07:47:02.600Z,98594.00
2022-08-01T07:49:32.891Z,98596.00
2022-08-01T07:52:04.947Z,98587.00
2022-08-01T07:54:34.466Z,98588.00
2022-08-01T07:57:03.072Z,98589.00
2022-08-01T07:59:31.371Z,98593.00
2022-08-01T08:01:59.787Z,98592.00
2022-08-01T08:04:28.067Z,98595.00
2022-08-01T08:06:56.254Z,98594.00
2022-08-01T08:09:25.910Z,98604.00
2022-08-01T08:11:54.104Z,98597.00
2022-08-01T08:14:23.783Z,98605.00
2022-08-01T08:17:01.815Z,98605.00
2022-08-01T08:19:37.287Z,98602.00
2022-08-01T08:22:07.783Z,98596.00
2022-08-01T08:24:46.898Z,98596.00
2022-08-01T08:27:15.470Z,98595.00
2022-08-01T08:29:43.971Z,98591.00
2022-08-01T08:32:13.605Z,98601.00
2022-08-01T08:34:41.826Z,98602.00
2022-08-01T08:37:10.041Z,98598.00
2022-08-01T08:39:41.280Z,98590.00
2022-08-01T08:42:11.939Z,98584.00
2022-08-01T08:44:43.573Z,98596.00
2022-08-01T08:47:17.372Z,98584.00
2022-08-01T08:49:48.784Z,98590.00
2022-08-01T08:52:17.924Z,98585.00
2022-08-01T08:54:46.118Z,98589.00
2022-08-01T08:57:16.537Z,98593.00
2022-08-01T08:59:45.222Z,98588.00
2022-08-01T09:02:14.189Z,98587.00
2022-08-01T09:04:42.636Z,98581.00
2022-08-01T09:07:12.809Z,98585.00
2022-08-01T09:09:41.923Z,98583.00
2022-08-01T09:12:10.990Z,98585.00
2022-08-01T09:14:47.867Z,98581.00
2022-08-01T09:17:17.487Z,98581.00
2022-08-01T09:19:46.640Z,98583.00
2022-08-01T09:22:19.062Z,98588.00
2022-08-01T09:24:59.657Z,98589.00
2022-08-01T09:27:28.974Z,98589.00
2022-08-01T09:30:08.236Z,98601.00
2022-08-01T09:32:36.820Z,98599.00
2022-08-01T09:35:29.832Z,98597.00
2022-08-01T09:38:14.556Z,98602.00
2022-08-01T09:40:49.668Z,98601.00
2022-08-01T09:43:19.696Z,98593.00
2022-08-01T09:45:50.806Z,98595.00
2022-08-01T09:48:22.640Z,98600.00
2022-08-01T09:51:03.999Z,98597.00
2022-08-01T09:53:52.446Z,98601.00
2022-08-01T09:56:22.301Z,98608.00
2022-08-01T09:59:01.041Z,98606.00
2022-08-01T10:01:35.986Z,98600.00
2022-08-01T10:04:09.959Z,98595.00
2022-08-01T10:06:39.194Z,98606.00
2022-08-01T10:09:07.512Z,98591.00
2022-08-01T10:11:37.803Z,98599.00
2022-08-01T10:14:08.124Z,98611.00
2022-08-01T10:16:38.880Z,98605.00
2022-08-01T10:19:11.218Z,98611.00
2022-08-01T10:21:58.549Z,98603.00
2022-08-01T10:24:29.316Z,98600.00
2022-08-01T10:27:05.545Z,98595.00
2022-08-01T10:29:58.970Z,98598.00
2022-08-01T10:32:28.959Z,98601.00
2022-08-01T10:34:57.598Z,98596.00
2022-08-01T10:37:27.180Z,98598.00
2022-08-01T10:40:14.109Z,98600.00
2022-08-01T10:42:44.658Z,98599.00
2022-08-01T10:45:31.349Z,98600.00
2022-08-01T10:48:05.262Z,98601.00
2022-08-01T10:50:34.743Z,98597.00
2022-08-01T10:53:15.857Z,98594.00
2022-08-01T10:55:52.561Z,98599.00
2022-08-01T10:58:25.285Z,98599.00
2022-08-01T11:01:19.796Z,98595.00
2022-08-01T11:04:15.575Z,98597.00
2022-08-01T11:06:55.423Z,98582.00
2022-08-01T11:09:37.503Z,98587.00
2022-08-01T11:12:16.277Z,98591.00
2022-08-01T11:15:29.956Z,98584.00
2022-08-01T11:18:04.705Z,98584.00
2022-08-01T11:20:36.172Z,98593.00
2022-08-01T11:23:20.058Z,98588.00
2022-08-01T11:26:12.241Z,98580.00
2022-08-01T11:28:50.413Z,98578.00
2022-08-01T11:31:29.088Z,98579.00
2022-08-01T11:34:00.468Z,98581.00
2022-08-01T11:36:57.730Z,98570.00
2022-08-01T11:39:21.170Z,98568.00
2022-08-01T11:41:49.911Z,98573.00
2022-08-01T11:44:20.927Z,98565.00
2022-08-01T11:46:55.372Z,98575.00
2022-08-01T11:49:33.756Z,98565.00
2022-08-01T11:52:08.559Z,98565.00
2022-08-01T11:54:39.438Z,98565.00
2022-08-01T11:57:09.843Z,98562.00
2022-08-01T12:00:01.391Z,98549.00
2022-08-01T12:02:31.826Z,98548.00
2022-08-01T12:05:00.816Z,98544.00
2022-08-01T12:07:31.539Z,98536.00
2022-08-01T12:10:01.640Z,98536.00
2022-08-01T12:12:30.393Z,98537.00
2022-08-01T12:15:00.371Z,98537.00
2022-08-01T12:17:33.392Z,98524.00
2022-08-01T12:20:01.656Z,98528.00
2022-08-01T12:22:31.284Z,98536.00
2022-08-01T12:25:06.860Z,98542.00
2022-08-01T12:27:35.084Z,98527.00
2022-08-01T12:30:03.596Z,98526.00
2022-08-01T12:32:35.534Z,98522.00
2022-08-01T12:35:05.336Z,98525.00
2022-08-01T12:37:37.165Z,98519.00
2022-08-01T12:40:11.917Z,98520.00
2022-08-01T12:42:40.951Z,98516.00
2022-08-01T12:45:10.625Z,98528.00
2022-08-01T12:47:39.186Z,98524.00
2022-08-01T12:50:08.486Z,98523.00
2022-08-01T12:52:38.264Z,98527.00
2022-08-01T12:55:09.669Z,98526.00
2022-08-01T12:57:39.401Z,98531.00
2022-08-01T13:00:12.655Z,98535.00
2022-08-01T13:02:41.018Z,98528.00
2022-08-01T13:05:09.943Z,98535.00
2022-08-01T13:07:45.621Z,98535.00
2022-08-01T13:10:16.175Z,98539.00
2022-08-01T13:12:53.716Z,98538.00
2022-08-01T13:15:27.719Z,98530.00
2022-08-01T13:17:56.134Z,98535.00
2022-08-01T13:20:28.662Z,98525.00
2022-08-01T13:23:11.612Z,98529.00
2022-08-01T13:25:53.526Z,98526.00
2022-08-01T13:28:23.045Z,98524.00
2022-08-01T13:30:55.316Z,98534.00
2022-08-01T13:33:23.539Z,98524.00
2022-08-01T13:35:52.928Z,98528.00
2022-08-01T13:38:42.586Z,98527.00
2022-08-01T13:41:10.802Z,98518.00
2022-08-01T13:43:58.486Z,98519.00
2022-08-01T13:46:29.499Z,98523.00
2022-08-01T13:48:58.003Z,98529.00
2022-08-01T13:51:33.400Z,98521.00
2022-08-01T13:54:03.001Z,98520.00
2022-08-01T13:56:31.163Z,98506.00
2022-08-01T13:58:59.361Z,98513.00
2022-08-01T14:01:32.300Z,98506.00
2022-08-01T14:04:02.348Z,98516.00
2022-08-01T14:06:30.686Z,98506.00
2022-08-01T14:08:58.862Z,98508.00
2022-08-01T14:11:37.202Z,98504.00
2022-08-01T14:14:08.263Z,98507.00
2022-08-01T14:16:38.553Z,98508.00
2022-08-01T14:19:06.745Z,98500.00
2022-08-01T14:21:34.982Z,98511.00
2022-08-01T14:24:03.137Z,98506.00
2022-08-01T14:26:32.807Z,98522.00
2022-08-01T14:29:00.983Z,98509.00
2022-08-01T14:31:34.140Z,98512.00
2022-08-01T14:34:02.910Z,98518.00
2022-08-01T14:36:32.498Z,98507.00
2022-08-01T14:39:06.765Z,98508.00
2022-08-01T14:41:36.526Z,98509.00
2022-08-01T14:44:05.156Z,98512.00
2022-08-01T14:46:34.090Z,98513.00
2022-08-01T14:49:02.436Z,98517.00
2022-08-01T14:51:34.103Z,98514.00
2022-08-01T14:54:02.351Z,98515.00
2022-08-01T14:56:32.184Z,98509.00
2022-08-01T14:59:01.733Z,98513.00
2022-08-01T15:01:30.034Z,98512.00
2022-08-01T15:03:58.518Z,98519.00
2022-08-01T15:06:27.244Z,98508.00
2022-08-01T15:08:55.476Z,98516.00
2022-08-01T15:11:24.170Z,98519.00
2022-08-01T15:14:21.362Z,98514.00
2022-08-01T15:16:49.628Z,98519.00
2022-08-01T15:19:17.877Z,98515.00
2022-08-01T15:21:46.111Z,98519.00
2022-08-01T15:24:14.279Z,98526.00
2022-08-01T15:26:43.761Z,98519.00
2022-08-01T15:29:14.472Z,98515.00
2022-08-01T15:31:42.685Z,98517.00
2022-08-01T15:34:10.863Z,98518.00
2022-08-01T15:36:41.889Z,98517.00
2022-08-01T15:39:11.772Z,98527.00
2022-08-01T15:41:40.002Z,98518.00
2022-08-01T15:44:08.303Z,98519.00
2022-08-01T15:46:37.852Z,98527.00
2022-08-01T15:49:06.345Z,98528.00
2022-08-01T15:51:34.919Z,98520.00
2022-08-01T15:54:09.283Z,98524.00
2022-08-01T15:56:41.055Z,98521.00
2022-08-01T15:59:09.201Z,98525.00
2022-08-01T16:01:38.919Z,98528.00
2022-08-01T16:04:07.600Z,98530.00
2022-08-01T16:06:36.147Z,98529.00
2022-08-01T16:09:04.429Z,98534.00
2022-08-01T16:11:32.622Z,98528.00
2022-08-01T16:14:00.800Z,98525.00
2022-08-01T16:16:29.187Z,98513.00
2022-08-01T16:18:58.768Z,98519.00
2022-08-01T16:21:27.133Z,98515.00
2022-08-01T16:23:55.317Z,98519.00
2022-08-01T16:26:28.009Z,98525.00
2022-08-01T16:29:11.741Z,98512.00
2022-08-01T16:31:51.872Z,98519.00
2022-08-01T16:34:29.514Z,98519.00
2022-08-01T16:36:57.694Z,98509.00
2022-08-01T16:39:26.032Z,98506.00
2022-08-01T16:41:55.136Z,98510.00
2022-08-01T16:44:33.692Z,98512.00
2022-08-01T16:47:03.117Z,98517.00
2022-08-01T16:49:33.220Z,98518.00
2022-08-01T16:52:01.510Z,98512.00
2022-08-01T16:54:29.656Z,98513.00
2022-08-01T16:57:07.844Z,98527.00
2022-08-01T16:59:40.911Z,98513.00
2022-08-01T17:02:11.093Z,98516.00
2022-08-01T17:04:40.753Z,98517.00
2022-08-01T17:07:09.439Z,98523.00
2022-08-01T17:09:42.990Z,98522.00
2022-08-01T17:12:20.977Z,98522.00
2022-08-01T17:14:50.923Z,98523.00
2022-08-01T17:17:19.160Z,98517.00
2022-08-01T17:19:48.824Z,98525.00
2022-08-01T17:22:17.049Z,98521.00
2022-08-01T17:24:45.259Z,98526.00
2022-08-01T17:27:13.986Z,98516.00
2022-08-01T17:29:43.786Z,98523.00
2022-08-01T17:32:12.991Z,98522.00
2022-08-01T17:34:41.272Z,98518.00
2022-08-01T17:37:10.880Z,98515.00
2022-08-01T17:39:40.093Z,98525.00
2022-08-01T17:42:09.175Z,98527.00
2022-08-01T17:44:37.529Z,98543.00
2022-08-01T17:47:06.442Z,98531.00
2022-08-01T17:49:53.975Z,98541.00
2022-08-01T17:52:29.448Z,98538.00
2022-08-01T17:54:58.444Z,98541.00
2022-08-01T17:57:26.832Z,98534.00
2022-08-01T17:59:55.107Z,98538.00
2022-08-01T18:02:23.490Z,98537.00
2022-08-01T18:04:53.031Z,98543.00
2022-08-01T18:07:22.431Z,98546.00
2022-08-01T18:10:12.009Z,98545.00
2022-08-01T18:12:40.319Z,98538.00
2022-08-01T18:15:09.388Z,98543.00
2022-08-01T18:17:43.451Z,98551.00
2022-08-01T18:20:12.554Z,98549.00
2022-08-01T18:22:41.720Z,98562.00
2022-08-01T18:25:11.581Z,98562.00
2022-08-01T18:28:18.913Z,98556.00
2022-08-01T18:30:28.029Z,98562.00
2022-08-01T18:32:57.049Z,98565.00
2022-08-01T18:35:51.632Z,98565.00
2022-08-01T18:38:13.771Z,98570.00
2022-08-01T18:40:44.187Z,98571.00
2022-08-01T18:43:12.746Z,98565.00
2022-08-01T18:45:43.077Z,98560.00
2022-08-01T18:48:11.865Z,98580.00
2022-08-01T18:50:40.630Z,98573.00
2022-08-01T18:53:09.108Z,98565.00
2022-08-01T18:55:37.302Z,98575.00
2022-08-01T18:58:06.910Z,98575.00
2022-08-01T19:00:35.106Z,98574.00
2022-08-01T19:03:04.405Z,98573.00
2022-08-01T19:05:34.831Z,98579.00
2022-08-01T19:08:06.692Z,98587.00
2022-08-01T19:10:36.048Z,98585.00
2022-08-01T19:13:04.410Z,98591.00
2022-08-01T19:15:33.961Z,98579.00
2022-08-01T19:18:02.382Z,98585.00
2022-08-01T19:20:30.591Z,98592.00
2022-08-01T19:22:58.938Z,98598.00
2022-08-01T19:25:27.246Z,98600.00
2022-08-01T19:27:55.515Z,98599.00
2022-08-01T19:30:23.726Z,98604.00
2022-08-01T19:32:53.389Z,98605.00
2022-08-01T19:35:23.047Z,98607.00
2022-08-01T19:37:52.578Z,98614.00
2022-08-01T19:40:27.753Z,98620.00
2022-08-01T19:42:57.161Z,98605.00
2022-08-01T19:45:26.079Z,98610.00
2022-08-01T19:47:57.417Z,98619.00
2022-08-01T19:50:26.607Z,98615.00
2022-08-01T19:52:55.514Z,98612.00
2022-08-01T19:55:24.517Z,98620.00
2022-08-01T20:00:42.793Z,98623.00
2022-08-01T20:03:12.501Z,98612.00
2022-08-01T20:05:40.801Z,98627.00
2022-08-01T20:08:08.987Z,98631.00
2022-08-01T20:10:38.308Z,98629.00
2022-08-01T20:13:06.502Z,98622.00
2022-08-01T20:15:34.705Z,98621.00
2022-08-01T20:18:05.851Z,98618.00
2022-08-01T20:20:35.480Z,98618.00
2022-08-01T20:23:03.724Z,98625.00
2022-08-01T20:25:40.347Z,98615.00
2022-08-01T20:28:10.346Z,98616.00
2022-08-01T20:30:38.870Z,98616.00
2022-08-01T20:33:07.282Z,98623.00
2022-08-01T20:35:53.426Z,98634.00
2022-08-01T20:38:23.887Z,98634.00
2022-08-01T20:40:52.918Z,98634.00
2022-08-01T20:43:21.981Z,98626.00
2022-08-01T20:45:50.511Z,98626.00
2022-08-01T20:48:18.699Z,98630.00
2022-08-01T20:51:06.128Z,98632.00
2022-08-01T20:53:36.744Z,98637.00
2022-08-01T20:56:07.607Z,98642.00
2022-08-01T20:58:47.101Z,98635.00
2022-08-01T21:01:16.483Z,98639.00
2022-08-01T21:03:49.885Z,98635.00
2022-08-01T21:06:19.511Z,98641.00
2022-08-01T21:08:49.969Z,98639.00
2022-08-01T21:11:21.922Z,98634.00
2022-08-01T21:13:50.444Z,98643.00
2022-08-01T21:16:25.024Z,98650.00
2022-08-01T21:21:51.693Z,98665.00
2022-08-01T21:24:20.545Z,98661.00
2022-08-01T21:26:48.745Z,98676.00
2022-08-01T21:29:17.944Z,98673.00
2022-08-01T21:31:46.168Z,98673.00
2022-08-01T21:34:14.372Z,98666.00
2022-08-01T21:36:43.255Z,98676.00
2022-08-01T21:39:12.834Z,98675.00
2022-08-01T21:41:56.312Z,98678.00
2022-08-01T21:44:32.244Z,98685.00
2022-08-01T21:47:00.522Z,98677.00
2022-08-01T21:49:28.823Z,98687.00
2022-08-01T21:52:01.280Z,98685.00
2022-08-01T21:54:38.700Z,98693.00
2022-08-01T21:57:08.510Z,98686.00
2022-08-01T21:59:41.435Z,98691.00
2022-08-01T22:02:11.630Z,98694.00
2022-08-01T22:04:42.705Z,98705.00
2022-08-01T22:07:11.648Z,98697.00
2022-08-01T22:09:41.207Z,98697.00
2022-08-01T22:12:13.571Z,98714.00
2022-08-01T22:14:45.006Z,98709.00
2022-08-01T22:17:15.358Z,98713.00
2022-08-01T22:19:45.696Z,98711.00
2022-08-01T22:22:44.313Z,98715.00
2022-08-01T22:25:05.340Z,98715.00
2022-08-01T22:28:05.745Z,98726.00
2022-08-01T22:30:21.769Z,98720.00
2022-08-01T22:33:15.565Z,98724.00
2022-08-01T22:35:39.940Z,98717.00
2022-08-01T22:38:09.719Z,98730.00
2022-08-01T22:40:41.666Z,98720.00
2022-08-01T22:43:14.470Z,98727.00
2022-08-01T22:45:46.236Z,98724.00
2022-08-01T22:48:16.375Z,98726.00
2022-08-01T22:50:45.719Z,98725.00
2022-08-01T22:53:23.327Z,98730.00
2022-08-01T22:55:58.440Z,98730.00
2022-08-01T22:58:27.692Z,98730.00
2022-08-01T23:00:56.394Z,98734.00
2022-08-01T23:03:27.653Z,98717.00
2022-08-01T23:05:57.899Z,98730.00
2022-08-01T23:08:26.110Z,98722.00
2022-08-01T23:10:55.701Z,98724.00
2022-08-01T23:13:24.001Z,98728.00
2022-08-01T23:15:52.724Z,98720.00
2022-08-01T23:18:21.208Z,98711.00
2022-08-01T23:20:49.625Z,98718.00
2022-08-01T23:23:17.822Z,98716.00
2022-08-01T23:26:00.674Z,98718.00
2022-08-01T23:28:29.378Z,98718.00
2022-08-01T23:30:57.608Z,98713.00
2022-08-01T23:33:25.785Z,98708.00
2022-08-01T23:35:53.976Z,98705.00
2022-08-01T23:38:22.241Z,98698.00
2022-08-01T23:40:51.098Z,98706.00
2022-08-01T23:43:20.675Z,98694.00
2022-08-01T23:46:03.652Z,98694.00
2022-08-01T23:48:34.478Z,98698.00
2022-08-01T23:51:02.726Z,98695.00
2022-08-01T23:53:31.483Z,98693.00
2022-08-01T23:56:02.408Z,98696.00
2022-08-01T23:58:33.618Z,98685.00
